Time;durP1;ratioP1;P1;durP2;ratioP2;P2;SDS_P1;SDS_P2;PMS_P1;PMS_P2;Temp;Humidity;BMP_temperature;BMP_pressure;BME280_temperature;BME280_humidity;BME280_pressure;Samples;Min_cycle;Max_cycle;Signal;HPM_P1;HPM_P2
2023/08/01 00:01:39;;;;;;;35.17;7.03;;;25.90;57.30;;;;;;5020740;28;20292;-69
2023/08/01 00:04:06;;;;;;;40.33;7.23;;;25.90;57.30;;;;;;5022896;27;20831;-68
2023/08/01 00:06:32;;;;;;;29.13;6.10;;;25.90;57.30;;;;;;5023350;28;20208;-69
2023/08/01 00:08:59;;;;;;;23.00;5.63;;;25.90;57.30;;;;;;5028533;27;20231;-73
2023/08/01 00:11:26;;;;;;;47.73;7.97;;;25.90;57.30;;;;;;5024846;28;20211;-77
2023/08/01 00:13:55;;;;;;;25.07;5.47;;;25.90;57.40;;;;;;5023985;28;20201;-69
2023/08/01 00:16:22;;;;;;;24.17;5.33;;;25.90;57.40;;;;;;5025118;28;20260;-69
2023/08/01 00:18:48;;;;;;;26.50;5.53;;;25.90;57.40;;;;;;5018994;28;20201;-72
2023/08/01 00:21:15;;;;;;;27.37;6.17;;;25.80;57.40;;;;;;5027620;28;20201;-84
2023/08/01 00:23:42;;;;;;;29.73;6.23;;;25.90;57.40;;;;;;5042475;28;20644;-82
2023/08/01 00:26:09;;;;;;;22.73;5.20;;;25.80;57.40;;;;;;5017504;28;20309;-71
2023/08/01 00:28:36;;;;;;;24.63;6.00;;;25.80;57.40;;;;;;5008264;28;20217;-82
2023/08/01 00:31:06;;;;;;;28.37;5.87;;;25.80;57.40;;;;;;5023785;28;20211;-83
2023/08/01 00:33:33;;;;;;;26.77;5.63;;;25.80;57.40;;;;;;5025212;28;20209;-84
2023/08/01 00:36:00;;;;;;;24.97;5.80;;;25.80;57.40;;;;;;5024009;28;20722;-83
2023/08/01 00:38:28;;;;;;;33.97;6.30;;;25.80;57.50;;;;;;5024082;28;20201;-81
2023/08/01 00:40:55;;;;;;;23.13;5.30;;;25.80;57.50;;;;;;5023786;28;20254;-81
2023/08/01 00:43:22;;;;;;;46.20;7.90;;;25.80;57.50;;;;;;5023506;28;20295;-75
2023/08/01 00:45:49;;;;;;;32.43;6.30;;;25.80;57.50;;;;;;5022701;28;20320;-75
2023/08/01 00:48:19;;;;;;;27.17;6.03;;;25.80;57.50;;;;;;5023757;28;20741;-72
2023/08/01 00:50:46;;;;;;;23.10;5.60;;;25.80;57.50;;;;;;5025035;28;20216;-77
2023/08/01 00:53:13;;;;;;;22.57;4.97;;;25.80;57.50;;;;;;5024718;28;20229;-74
2023/08/01 00:55:40;;;;;;;25.73;5.40;;;25.80;57.50;;;;;;5024511;28;20480;-75
2023/08/01 00:58:07;;;;;;;21.33;4.73;;;25.80;57.50;;;;;;5023546;28;20205;-72
2023/08/01 01:00:34;;;;;;;27.47;6.07;;;25.70;57.50;;;;;;5024695;28;20209;-71
2023/08/01 01:03:01;;;;;;;76.80;10.33;;;25.80;57.50;;;;;;5020758;28;20686;-70
2023/08/01 01:05:35;;;;;;;21.67;5.03;;;25.80;57.50;;;;;;5019609;28;20285;-69
2023/08/01 01:08:03;;;;;;;22.30;5.10;;;25.80;57.60;;;;;;5022413;28;20989;-68
2023/08/01 01:10:31;;;;;;;30.53;6.00;;;25.80;57.60;;;;;;5022411;28;20684;-75
2023/08/01 01:12:58;;;;;;;25.53;5.53;;;25.80;57.60;;;;;;5025786;28;20376;-77
2023/08/01 01:15:25;;;;;;;24.30;5.83;;;25.80;57.60;;;;;;5027162;28;20253;-69
2023/08/01 01:17:52;;;;;;;24.03;5.27;;;25.80;57.60;;;;;;5026850;28;20293;-68
2023/08/01 01:20:24;;;;;;;27.37;5.60;;;25.80;57.60;;;;;;5026116;28;20766;-70
2023/08/01 01:22:53;;;;;;;23.70;5.63;;;25.80;57.60;;;;;;5040236;28;20291;-72
2023/08/01 01:25:22;;;;;;;41.07;7.17;;;25.70;57.50;;;;;;5023759;28;20193;-69
2023/08/01 01:27:52;;;;;;;21.23;5.40;;;25.70;57.60;;;;;;5031660;27;20303;-72
2023/08/01 01:30:20;;;;;;;30.83;6.07;;;25.80;57.60;;;;;;5028220;27;20997;-69
2023/08/01 01:32:47;;;;;;;25.57;6.00;;;25.80;57.60;;;;;;5030634;28;20307;-70
2023/08/01 01:35:14;;;;;;;48.40;7.63;;;25.80;57.60;;;;;;5026333;27;20285;-68
2023/08/01 01:37:41;;;;;;;23.77;5.30;;;25.70;57.50;;;;;;5029493;27;20295;-69
2023/08/01 01:40:10;;;;;;;44.27;7.47;;;25.80;57.60;;;;;;5026698;28;20248;-74
2023/08/01 01:42:38;;;;;;;34.93;6.37;;;25.70;57.60;;;;;;5027018;28;20283;-68
2023/08/01 01:45:06;;;;;;;33.47;6.67;;;25.70;57.60;;;;;;5027380;28;20288;-71
2023/08/01 01:47:33;;;;;;;28.50;5.87;;;25.80;57.60;;;;;;5026373;28;20320;-71
2023/08/01 01:50:00;;;;;;;30.43;6.37;;;25.70;57.60;;;;;;5026529;27;20697;-73
2023/08/01 01:52:27;;;;;;;33.97;6.77;;;25.70;57.60;;;;;;5025871;28;20292;-68
2023/08/01 01:54:54;;;;;;;24.67;5.80;;;25.70;57.60;;;;;;5027904;28;20235;-68
2023/08/01 01:57:22;;;;;;;25.33;5.30;;;25.70;57.60;;;;;;5026107;27;20344;-68
2023/08/01 01:59:49;;;;;;;28.20;6.17;;;25.70;57.60;;;;;;5023224;28;20207;-69
2023/08/01 02:02:16;;;;;;;26.87;5.93;;;25.70;57.60;;;;;;5035842;27;20288;-68
2023/08/01 02:04:42;;;;;;;28.57;6.17;;;25.70;57.60;;;;;;5022090;28;20218;-68
2023/08/01 02:07:09;;;;;;;30.67;6.20;;;25.70;57.60;;;;;;5027744;28;20289;-74
2023/08/01 02:09:36;;;;;;;33.70;6.37;;;25.70;57.60;;;;;;5006247;28;20205;-72
2023/08/01 02:12:04;;;;;;;23.13;5.73;;;25.70;57.60;;;;;;5027740;28;20201;-68
2023/08/01 02:14:32;;;;;;;35.67;6.43;;;25.70;57.60;;;;;;5024657;28;20210;-69
2023/08/01 02:16:59;;;;;;;26.97;5.97;;;25.70;57.60;;;;;;5027640;28;20422;-68
2023/08/01 02:19:26;;;;;;;23.83;5.47;;;25.80;57.70;;;;;;5027023;28;20281;-71
2023/08/01 02:21:54;;;;;;;25.27;5.63;;;25.70;57.60;;;;;;5026971;28;20319;-68
2023/08/01 02:24:21;;;;;;;35.40;6.60;;;25.70;57.60;;;;;;5026786;27;20656;-69
2023/08/01 02:26:48;;;;;;;21.77;5.20;;;25.70;57.60;;;;;;5025578;28;20201;-69
2023/08/01 02:29:15;;;;;;;41.27;7.20;;;25.70;57.60;;;;;;5024620;28;20570;-68
2023/08/01 02:31:44;;;;;;;26.20;5.87;;;25.70;57.60;;;;;;5027056;28;20208;-69
2023/08/01 02:34:11;;;;;;;34.80;6.50;;;25.70;57.60;;;;;;5023370;28;20244;-70
2023/08/01 02:36:40;;;;;;;19.17;5.00;;;25.70;57.70;;;;;;5024633;28;20239;-69
2023/08/01 02:39:07;;;;;;;23.07;5.60;;;25.70;57.70;;;;;;5026400;28;20197;-68
2023/08/01 02:41:34;;;;;;;24.80;5.63;;;25.70;57.60;;;;;;5027519;28;20273;-71
2023/08/01 02:44:01;;;;;;;32.83;6.53;;;25.70;57.60;;;;;;5026288;28;20284;-72
2023/08/01 02:46:29;;;;;;;35.67;6.67;;;25.70;57.70;;;;;;5023509;28;20288;-71
2023/08/01 02:48:57;;;;;;;21.97;5.47;;;25.70;57.70;;;;;;5024914;28;20225;-69
2023/08/01 02:51:24;;;;;;;22.73;5.50;;;25.70;57.70;;;;;;5026286;28;20668;-69
2023/08/01 02:53:51;;;;;;;19.87;5.23;;;25.70;57.70;;;;;;5025568;28;20292;-70
2023/08/01 02:56:18;;;;;;;46.53;7.83;;;25.70;57.70;;;;;;5025657;28;20722;-69
2023/08/01 02:58:45;;;;;;;23.60;5.57;;;25.70;57.70;;;;;;5025653;28;20211;-75
2023/08/01 03:01:13;;;;;;;23.20;5.67;;;25.70;57.70;;;;;;5029662;28;20208;-78
2023/08/01 03:03:41;;;;;;;26.67;5.90;;;25.70;57.70;;;;;;5046853;28;20265;-81
2023/08/01 03:06:09;;;;;;;21.30;5.37;;;25.70;57.70;;;;;;5028209;28;20205;-76
2023/08/01 03:08:36;;;;;;;25.10;5.63;;;25.70;57.70;;;;;;5024509;28;20743;-72
2023/08/01 03:11:03;;;;;;;24.60;5.50;;;25.70;57.70;;;;;;5024969;28;20307;-80
2023/08/01 03:13:30;;;;;;;43.07;7.40;;;25.70;57.70;;;;;;5026373;28;20224;-81
2023/08/01 03:15:57;;;;;;;20.30;5.07;;;25.70;57.80;;;;;;5025145;28;20295;-77
2023/08/01 03:18:24;;;;;;;48.10;8.00;;;25.70;57.80;;;;;;5022103;27;20205;-76
2023/08/01 03:20:51;;;;;;;26.93;6.07;;;25.70;57.70;;;;;;5021693;28;20197;-81
2023/08/01 03:23:19;;;;;;;40.67;6.90;;;25.70;57.70;;;;;;5025139;28;20211;-76
2023/08/01 03:25:46;;;;;;;36.83;6.73;;;25.70;57.80;;;;;;5023788;28;20328;-74
2023/08/01 03:28:13;;;;;;;45.60;7.63;;;25.70;57.80;;;;;;5025486;27;20325;-83
2023/08/01 03:30:40;;;;;;;34.83;6.83;;;25.70;57.80;;;;;;5021552;28;20215;-78
2023/08/01 03:33:07;;;;;;;18.70;5.40;;;25.70;57.80;;;;;;5025829;28;20266;-79
2023/08/01 03:35:34;;;;;;;24.97;5.37;;;25.70;57.80;;;;;;5024696;28;20756;-81
2023/08/01 03:38:01;;;;;;;21.23;5.50;;;25.70;57.80;;;;;;5043686;28;20288;-72
2023/08/01 03:40:29;;;;;;;16.40;4.80;;;25.60;57.80;;;;;;5030072;28;20287;-77
2023/08/01 03:42:56;;;;;;;33.17;6.63;;;25.70;57.90;;;;;;5024455;28;20197;-75
2023/08/01 03:45:23;;;;;;;26.63;5.67;;;25.70;57.90;;;;;;5026284;28;20236;-85
2023/08/01 03:47:50;;;;;;;17.20;4.80;;;25.70;57.90;;;;;;5025279;28;20285;-76
2023/08/01 03:50:17;;;;;;;23.33;5.90;;;25.70;57.90;;;;;;5024816;28;20313;-78
2023/08/01 03:52:45;;;;;;;30.07;6.03;;;25.70;57.90;;;;;;5025967;28;20284;-88
2023/08/01 03:55:12;;;;;;;21.57;5.47;;;25.70;57.90;;;;;;5021727;28;20281;-88
2023/08/01 03:57:42;;;;;;;21.20;5.40;;;25.70;57.90;;;;;;5026612;28;20274;-90
2023/08/01 04:00:13;;;;;;;20.03;5.07;;;25.70;57.90;;;;;;5024637;28;20244;-80
2023/08/01 04:02:41;;;;;;;40.20;6.80;;;25.70;57.90;;;;;;5024429;28;20205;-75
2023/08/01 04:05:09;;;;;;;17.73;5.13;;;25.70;57.90;;;;;;5006838;27;20205;-73
2023/08/01 04:07:36;;;;;;;24.10;5.63;;;25.70;57.90;;;;;;5025374;28;20205;-74
2023/08/01 04:10:04;;;;;;;31.80;6.57;;;25.80;58.00;;;;;;5026547;27;20212;-74
2023/08/01 04:12:33;;;;;;;22.43;5.77;;;25.80;58.00;;;;;;5024262;28;20291;-79
2023/08/01 04:15:02;;;;;;;21.80;5.43;;;25.80;58.00;;;;;;5024918;28;20273;-76
2023/08/01 04:17:29;;;;;;;27.57;5.70;;;25.80;58.00;;;;;;5023939;28;20701;-78
2023/08/01 04:19:56;;;;;;;22.60;5.43;;;25.80;58.00;;;;;;5025177;27;20291;-76
2023/08/01 04:22:23;;;;;;;26.67;6.20;;;25.80;57.90;;;;;;5025302;28;20193;-79
2023/08/01 04:24:50;;;;;;;20.60;5.30;;;25.80;57.90;;;;;;5025430;28;20197;-81
2023/08/01 04:27:17;;;;;;;43.23;7.30;;;25.80;57.90;;;;;;5020712;28;20211;-85
2023/08/01 04:29:44;;;;;;;34.67;6.67;;;25.90;58.00;;;;;;5023592;28;20201;-84
2023/08/01 04:32:13;;;;;;;24.83;5.77;;;25.90;58.00;;;;;;5024222;28;20743;-84
2023/08/01 04:34:40;;;;;;;19.40;5.07;;;25.80;57.90;;;;;;5024725;28;20207;-78
2023/08/01 04:37:07;;;;;;;24.53;5.67;;;25.80;57.90;;;;;;5024577;28;20224;-77
2023/08/01 04:39:35;;;;;;;19.27;5.07;;;25.90;58.00;;;;;;5024617;28;20279;-74
2023/08/01 04:42:02;;;;;;;27.23;6.00;;;25.90;58.00;;;;;;5022918;28;20240;-84
2023/08/01 04:44:29;;;;;;;25.07;5.53;;;25.90;58.00;;;;;;5025143;28;20284;-77
2023/08/01 04:46:56;;;;;;;23.25;5.88;;;25.90;58.00;;;;;;5024769;28;20536;-74
2023/08/01 04:49:25;;;;;;;25.30;5.70;;;25.80;58.20;;;;;;5019691;28;20269;-70
2023/08/01 04:51:52;;;;;;;53.90;8.27;;;25.80;58.20;;;;;;5016759;27;20215;-76
2023/08/01 04:54:19;;;;;;;26.87;5.83;;;25.80;58.00;;;;;;5028174;28;20320;-72
2023/08/01 04:56:46;;;;;;;28.93;5.97;;;25.80;58.00;;;;;;5026623;27;20201;-71
2023/08/01 04:59:13;;;;;;;24.30;5.30;;;25.90;58.00;;;;;;5025874;28;20197;-71
2023/08/01 05:01:40;;;;;;;23.13;5.63;;;25.90;58.00;;;;;;5024921;28;20208;-71
2023/08/01 05:04:07;;;;;;;23.63;5.27;;;25.90;57.90;;;;;;5025859;28;20197;-70
2023/08/01 05:06:35;;;;;;;27.80;5.90;;;25.90;57.90;;;;;;5027989;28;20300;-73
2023/08/01 05:09:02;;;;;;;24.67;5.73;;;25.90;57.80;;;;;;5028784;28;20221;-77
2023/08/01 05:11:29;;;;;;;21.63;5.07;;;25.90;57.80;;;;;;5026221;27;20251;-73
2023/08/01 05:13:56;;;;;;;25.80;5.60;;;25.90;57.80;;;;;;5027718;27;20203;-75
2023/08/01 05:16:23;;;;;;;21.53;5.17;;;25.90;57.80;;;;;;5026918;28;20650;-74
2023/08/01 05:18:50;;;;;;;24.37;5.63;;;25.90;57.80;;;;;;5027131;28;20497;-70
2023/08/01 05:21:17;;;;;;;41.73;7.23;;;25.90;57.80;;;;;;5025856;28;20207;-70
2023/08/01 05:23:45;;;;;;;26.10;5.67;;;25.90;57.80;;;;;;5025832;28;20202;-70
2023/08/01 05:26:12;;;;;;;26.77;5.97;;;25.90;57.80;;;;;;5027231;28;20643;-71
2023/08/01 05:28:39;;;;;;;22.97;5.83;;;25.80;57.70;;;;;;5027703;28;20250;-70
2023/08/01 05:31:06;;;;;;;25.77;5.67;;;25.80;57.70;;;;;;5027374;28;20296;-70
2023/08/01 05:33:33;;;;;;;34.27;6.83;;;25.90;57.80;;;;;;5027105;28;20311;-70
2023/08/01 05:36:01;;;;;;;15.10;4.47;;;25.80;57.80;;;;;;5025722;28;20221;-70
2023/08/01 05:38:27;;;;;;;31.70;5.80;;;25.80;57.70;;;;;;5027933;28;20288;-71
2023/08/01 05:40:56;;;;;;;18.03;4.90;;;25.80;57.70;;;;;;5027020;27;20704;-74
2023/08/01 05:43:23;;;;;;;27.23;5.77;;;25.80;57.70;;;;;;5024316;28;20207;-71
2023/08/01 05:45:50;;;;;;;25.40;5.27;;;25.80;57.80;;;;;;5037032;27;20292;-70
2023/08/01 05:48:17;;;;;;;23.80;5.53;;;25.80;57.80;;;;;;5027287;28;20197;-70
2023/08/01 05:50:44;;;;;;;20.93;5.10;;;25.80;57.80;;;;;;5026481;28;20215;-70
2023/08/01 05:53:11;;;;;;;54.17;8.30;;;25.80;57.80;;;;;;5022560;27;20288;-73
2023/08/01 05:55:38;;;;;;;25.33;5.70;;;25.80;58.40;;;;;;5025477;28;20289;-73
2023/08/01 05:58:06;;;;;;;21.43;5.10;;;25.80;57.80;;;;;;5025065;28;20326;-74
2023/08/01 06:00:33;;;;;;;22.63;5.50;;;25.80;57.80;;;;;;5029452;27;20715;-73
2023/08/01 06:03:00;;;;;;;50.50;8.23;;;25.80;57.80;;;;;;5025769;27;20295;-75
2023/08/01 06:05:27;;;;;;;50.47;7.90;;;25.80;57.80;;;;;;5024805;27;20262;-73
2023/08/01 06:07:54;;;;;;;28.30;5.70;;;25.80;57.80;;;;;;5019200;28;20197;-72
2023/08/01 06:10:21;;;;;;;28.10;6.10;;;25.80;57.90;;;;;;5031515;28;20666;-73
2023/08/01 06:12:50;;;;;;;54.70;8.30;;;25.80;57.90;;;;;;5022065;27;20517;-75
2023/08/01 06:15:18;;;;;;;21.70;5.27;;;25.80;57.90;;;;;;5027332;28;20378;-73
2023/08/01 06:17:45;;;;;;;23.87;5.37;;;25.80;57.90;;;;;;5025809;27;20221;-72
2023/08/01 06:20:13;;;;;;;31.20;6.27;;;25.80;57.90;;;;;;5026915;28;20201;-72
2023/08/01 06:22:40;;;;;;;19.80;5.23;;;25.70;57.90;;;;;;5025768;27;20296;-72
2023/08/01 06:25:07;;;;;;;20.70;5.33;;;25.80;57.90;;;;;;5026576;28;20196;-69
2023/08/01 06:27:34;;;;;;;40.93;7.17;;;25.80;57.90;;;;;;5026047;27;20744;-68
2023/08/01 06:30:01;;;;;;;25.70;5.53;;;25.80;58.00;;;;;;5027280;28;20253;-70
2023/08/01 06:32:30;;;;;;;32.07;5.87;;;25.70;57.90;;;;;;5024828;28;20239;-77
2023/08/01 06:34:57;;;;;;;24.03;5.50;;;25.80;57.90;;;;;;5022544;27;20429;-72
2023/08/01 06:37:24;;;;;;;30.10;6.47;;;25.80;58.00;;;;;;5020541;28;20252;-73
2023/08/01 06:39:50;;;;;;;30.90;6.37;;;25.80;57.90;;;;;;5023575;27;20213;-68
2023/08/01 06:42:17;;;;;;;20.73;5.33;;;25.80;58.50;;;;;;5025902;28;20277;-72
2023/08/01 06:44:44;;;;;;;25.57;5.60;;;25.80;57.90;;;;;;5025011;28;20657;-70
2023/08/01 06:47:11;;;;;;;21.97;5.57;;;25.80;57.90;;;;;;5025653;28;20201;-70
2023/08/01 06:49:40;;;;;;;22.03;5.33;;;25.80;57.90;;;;;;5024257;27;20303;-74
2023/08/01 06:52:07;;;;;;;24.20;5.67;;;25.80;57.90;;;;;;5016743;28;20223;-70
2023/08/01 06:54:34;;;;;;;25.73;5.50;;;25.80;57.90;;;;;;5025388;28;20273;-72
2023/08/01 06:57:01;;;;;;;28.13;5.87;;;25.80;58.00;;;;;;5023147;28;20193;-68
2023/08/01 06:59:28;;;;;;;27.50;5.83;;;25.80;58.00;;;;;;5023585;28;20260;-70
2023/08/01 07:01:56;;;;;;;37.30;6.47;;;25.90;58.00;;;;;;5024266;27;20308;-72
2023/08/01 07:04:23;;;;;;;26.63;5.87;;;25.90;58.00;;;;;;5024760;28;20251;-69
2023/08/01 07:06:51;;;;;;;33.43;6.83;;;25.90;58.00;;;;;;5029155;27;20196;-69
2023/08/01 07:09:19;;;;;;;58.20;8.80;;;25.90;58.00;;;;;;5025267;28;20284;-75
2023/08/01 07:11:46;;;;;;;22.07;6.07;;;25.90;58.00;;;;;;5023855;28;20327;-71
2023/08/01 07:14:13;;;;;;;41.97;7.23;;;25.90;58.00;;;;;;5025121;28;20287;-70
2023/08/01 07:16:40;;;;;;;30.90;6.43;;;25.90;58.00;;;;;;5026170;28;20244;-71
2023/08/01 07:19:07;;;;;;;36.87;6.73;;;26.00;58.10;;;;;;5024864;28;20758;-70
2023/08/01 07:21:33;;;;;;;37.23;6.97;;;26.00;58.00;;;;;;5024388;27;20211;-70
2023/08/01 07:24:02;;;;;;;21.40;5.23;;;26.00;58.00;;;;;;5025585;28;20213;-70
2023/08/01 07:26:29;;;;;;;27.87;6.10;;;26.00;58.00;;;;;;5024077;28;20657;-71
2023/08/01 07:28:56;;;;;;;19.40;4.87;;;25.90;58.00;;;;;;5023895;28;20201;-70
2023/08/01 07:31:23;;;;;;;23.67;5.57;;;26.00;58.00;;;;;;5024623;28;20293;-71
2023/08/01 07:33:51;;;;;;;39.60;6.77;;;26.00;58.00;;;;;;5023314;28;20291;-69
2023/08/01 07:36:17;;;;;;;21.13;5.07;;;26.00;58.00;;;;;;5067756;27;20280;-72
2023/08/01 07:38:44;;;;;;;65.07;9.27;;;26.00;58.00;;;;;;5056115;27;20320;-69
2023/08/01 07:41:20;;;;;;;23.77;5.63;;;26.00;58.00;;;;;;5012105;28;20193;-68
2023/08/01 07:43:47;;;;;;;39.00;7.13;;;26.00;58.00;;;;;;5022692;27;20681;-72
2023/08/01 07:46:13;;;;;;;21.20;5.57;;;26.10;58.10;;;;;;5024816;28;20211;-69
2023/08/01 07:48:40;;;;;;;25.47;6.10;;;26.00;58.00;;;;;;5023384;28;20285;-69
2023/08/01 07:51:07;;;;;;;24.20;5.70;;;26.00;58.00;;;;;;5023862;28;20209;-71
2023/08/01 07:53:35;;;;;;;22.60;6.03;;;26.10;58.10;;;;;;5030567;28;20211;-72
2023/08/01 07:56:02;;;;;;;31.73;6.37;;;26.10;58.70;;;;;;5024553;28;20283;-65
2023/08/01 07:58:31;;;;;;;44.00;7.77;;;26.10;58.10;;;;;;5032493;28;20236;-65
2023/08/01 08:00:57;;;;;;;37.33;6.50;;;26.10;58.70;;;;;;5018188;28;20219;-65
2023/08/01 08:03:24;;;;;;;43.07;7.13;;;26.10;58.10;;;;;;5020600;28;20548;-81
2023/08/01 08:05:51;;;;;;;17.87;4.77;;;26.10;58.10;;;;;;5024539;28;20291;-76
2023/08/01 08:08:18;;;;;;;21.40;5.63;;;26.10;58.10;;;;;;5023173;28;20961;-68
2023/08/01 08:10:45;;;;;;;35.20;6.57;;;26.20;58.20;;;;;;5023826;28;20699;-75
2023/08/01 08:13:12;;;;;;;29.37;5.70;;;26.20;58.20;;;;;;5027471;27;20291;-70
2023/08/01 08:15:40;;;;;;;39.27;6.97;;;26.10;58.10;;;;;;5022412;28;20704;-75
2023/08/01 08:18:08;;;;;;;29.57;6.10;;;26.20;58.10;;;;;;5021576;28;20240;-67
2023/08/01 08:20:42;;;;;;;25.37;5.57;;;26.20;58.10;;;;;;5037412;28;20287;-70
2023/08/01 08:23:09;;;;;;;21.93;5.40;;;26.20;58.10;;;;;;5024739;28;20200;-69
2023/08/01 08:25:36;;;;;;;25.77;5.87;;;26.20;58.10;;;;;;5024941;28;20287;-69
2023/08/01 08:28:04;;;;;;;25.63;5.93;;;26.20;58.00;;;;;;5023821;28;20721;-72
2023/08/01 08:30:30;;;;;;;20.50;5.27;;;26.20;58.00;;;;;;5024924;28;20223;-69
2023/08/01 08:33:04;;;;;;;23.10;5.50;;;26.30;58.00;;;;;;5024245;28;20247;-72
2023/08/01 08:35:31;;;;;;;25.00;5.40;;;26.20;57.90;;;;;;5024078;28;20697;-69
2023/08/01 08:37:59;;;;;;;26.63;5.77;;;26.20;57.90;;;;;;5017871;28;20212;-70
2023/08/01 08:40:26;;;;;;;26.37;5.80;;;26.30;57.90;;;;;;5024661;28;20944;-69
2023/08/01 08:42:54;;;;;;;42.90;7.33;;;26.30;57.90;;;;;;5023757;28;20197;-69
2023/08/01 08:45:21;;;;;;;22.23;6.13;;;26.30;57.90;;;;;;5025064;28;20205;-72
2023/08/01 08:47:55;;;;;;;33.50;6.33;;;26.20;57.80;;;;;;5024699;28;20565;-70
2023/08/01 08:50:25;;;;;;;21.97;5.40;;;26.30;57.70;;;;;;5023621;28;20292;-76
2023/08/01 08:52:52;;;;;;;22.43;5.93;;;26.20;57.20;;;;;;5022725;28;20572;-71
2023/08/01 08:55:22;;;;;;;29.17;5.60;;;26.30;57.20;;;;;;5023499;28;20229;-75
2023/08/01 08:57:52;;;;;;;43.77;7.23;;;26.20;57.10;;;;;;5023730;28;20201;-65
2023/08/01 09:00:20;;;;;;;21.10;5.47;;;26.20;57.00;;;;;;5023851;28;20205;-69
2023/08/01 09:02:47;;;;;;;24.43;5.43;;;26.10;57.10;;;;;;5024388;27;20292;-67
2023/08/01 09:05:14;;;;;;;22.93;5.80;;;26.10;57.20;;;;;;5019612;28;20576;-66
2023/08/01 09:07:46;;;;;;;29.23;6.10;;;26.10;57.30;;;;;;5024419;28;20236;-67
2023/08/01 09:10:13;;;;;;;22.53;5.53;;;26.00;57.30;;;;;;5022201;28;20197;-68
2023/08/01 09:12:39;;;;;;;22.30;5.67;;;26.00;57.30;;;;;;5024740;28;20747;-68
2023/08/01 09:15:08;;;;;;;27.33;6.03;;;26.00;57.30;;;;;;5024294;28;20212;-73
2023/08/01 09:17:35;;;;;;;24.43;5.60;;;26.00;57.40;;;;;;5024601;28;20276;-72
2023/08/01 09:20:06;;;;;;;29.23;6.13;;;26.00;57.50;;;;;;5024084;28;20316;-76
2023/08/01 09:22:44;;;;;;;28.87;6.17;;;26.00;57.50;;;;;;5027086;28;20208;-73
2023/08/01 09:25:11;;;;;;;32.77;6.37;;;26.00;57.60;;;;;;5022364;28;20288;-72
2023/08/01 09:27:38;;;;;;;29.47;6.20;;;26.00;57.50;;;;;;5023301;28;20687;-74
2023/08/01 09:30:11;;;;;;;26.50;6.33;;;26.00;57.30;;;;;;5023149;28;20280;-74
2023/08/01 09:32:38;;;;;;;29.40;6.30;;;26.00;57.10;;;;;;5021640;28;20220;-75
2023/08/01 09:35:06;;;;;;;25.83;6.07;;;26.00;57.00;;;;;;5025386;28;20207;-75
2023/08/01 09:37:40;;;;;;;32.60;6.03;;;26.00;56.90;;;;;;5027044;28;20896;-75
2023/08/01 09:40:10;;;;;;;37.63;7.03;;;25.90;56.80;;;;;;5027324;28;20327;-72
2023/08/01 09:42:41;;;;;;;33.43;6.37;;;25.90;56.90;;;;;;5026527;28;20196;-72
2023/08/01 09:45:14;;;;;;;29.77;5.93;;;25.90;57.10;;;;;;5010777;28;20315;-73
2023/08/01 09:47:41;;;;;;;26.73;5.90;;;25.90;57.30;;;;;;5027231;28;20212;-75
2023/08/01 09:50:10;;;;;;;27.07;5.90;;;25.80;57.20;;;;;;5026172;27;20986;-74
2023/08/01 09:52:38;;;;;;;31.10;6.30;;;25.80;57.20;;;;;;5027061;27;20207;-73
2023/08/01 09:55:05;;;;;;;50.03;8.27;;;25.80;57.20;;;;;;5046948;27;20254;-74
2023/08/01 09:57:38;;;;;;;34.67;7.47;;;25.80;57.10;;;;;;5052925;27;20233;-71
2023/08/01 10:00:09;;;;;;;29.30;6.13;;;25.80;57.00;;;;;;5038562;27;20243;-71
2023/08/01 10:02:37;;;;;;;31.17;6.20;;;25.80;57.00;;;;;;5015309;28;20582;-75
2023/08/01 10:05:05;;;;;;;37.20;6.80;;;25.80;57.00;;;;;;5029476;27;20296;-72
2023/08/01 10:07:34;;;;;;;31.30;6.13;;;25.70;57.10;;;;;;5048162;27;20205;-73
2023/08/01 10:10:02;;;;;;;27.53;6.17;;;25.70;57.10;;;;;;5043389;27;20284;-73
2023/08/01 10:12:30;;;;;;;26.50;6.03;;;25.70;57.10;;;;;;5028569;27;20216;-76
2023/08/01 10:15:00;;;;;;;31.03;6.20;;;25.70;57.00;;;;;;5026580;28;20288;-77
2023/08/01 10:17:28;;;;;;;41.30;7.13;;;25.70;56.90;;;;;;5025559;28;20205;-76
2023/08/01 10:19:58;;;;;;;34.17;6.70;;;25.60;56.80;;;;;;5041750;27;20229;-75
2023/08/01 10:22:26;;;;;;;39.90;7.17;;;25.60;56.90;;;;;;5068001;27;20224;-76
2023/08/01 10:24:54;;;;;;;45.20;7.40;;;25.60;56.90;;;;;;5016488;28;20232;-78
2023/08/01 10:27:22;;;;;;;26.17;5.90;;;25.60;56.90;;;;;;5023322;28;20205;-75
2023/08/01 10:29:59;;;;;;;44.40;7.90;;;25.50;57.30;;;;;;5026110;28;20213;-76
2023/08/01 10:32:33;;;;;;;32.00;6.43;;;25.50;56.50;;;;;;5026161;28;20246;-79
2023/08/01 10:35:00;;;;;;;25.43;5.80;;;25.50;56.50;;;;;;5018759;28;20655;-76
2023/08/01 10:37:28;;;;;;;29.93;5.87;;;25.50;56.50;;;;;;5026114;28;20284;-77
2023/08/01 10:39:59;;;;;;;35.10;6.37;;;25.50;56.80;;;;;;5025557;28;20326;-74
2023/08/01 10:42:27;;;;;;;36.70;6.73;;;25.40;56.80;;;;;;5024013;28;20201;-74
2023/08/01 10:44:54;;;;;;;31.57;6.17;;;25.40;56.90;;;;;;5007524;28;20197;-74
2023/08/01 10:47:28;;;;;;;36.97;6.77;;;25.40;57.10;;;;;;5021578;28;20236;-79
2023/08/01 10:49:55;;;;;;;30.07;5.80;;;25.40;57.30;;;;;;5007400;28;20283;-78
2023/08/01 10:52:27;;;;;;;29.13;6.07;;;25.40;57.40;;;;;;5025222;28;20215;-75
2023/08/01 10:55:01;;;;;;;44.07;7.77;;;25.40;57.60;;;;;;5023894;28;20207;-78
2023/08/01 10:57:29;;;;;;;38.77;6.77;;;25.50;57.50;;;;;;5017450;28;20202;-80
2023/08/01 10:59:56;;;;;;;29.63;5.97;;;25.50;57.30;;;;;;5021803;28;20312;-75
2023/08/01 11:02:25;;;;;;;35.97;6.70;;;25.60;57.60;;;;;;5025007;28;20201;-80
2023/08/01 11:04:58;;;;;;;31.43;6.10;;;25.60;57.70;;;;;;5026109;28;20634;-78
2023/08/01 11:07:25;;;;;;;22.70;5.20;;;25.70;57.90;;;;;;5025853;28;20288;-75
2023/08/01 11:10:05;;;;;;;37.07;6.67;;;25.80;57.90;;;;;;5026151;28;20280;-80
2023/08/01 11:12:34;;;;;;;22.33;5.33;;;25.90;58.20;;;;;;5025365;28;20283;-73
2023/08/01 11:15:01;;;;;;;45.17;7.20;;;26.10;58.30;;;;;;5025519;28;20305;-76
2023/08/01 11:17:28;;;;;;;22.37;5.17;;;26.20;58.20;;;;;;5026175;28;20201;-75
2023/08/01 11:20:04;;;;;;;29.40;5.50;;;26.40;58.30;;;;;;5026460;28;20324;-73
2023/08/01 11:22:31;;;;;;;25.33;5.23;;;26.50;58.50;;;;;;5025262;28;20312;-74
2023/08/01 11:24:59;;;;;;;30.00;5.93;;;26.80;58.60;;;;;;5026215;28;20297;-75
2023/08/01 11:27:26;;;;;;;41.10;7.00;;;26.90;58.70;;;;;;5024234;27;20586;-74
2023/08/01 11:29:53;;;;;;;32.87;6.37;;;27.10;58.70;;;;;;5026502;28;20261;-75
2023/08/01 11:32:21;;;;;;;34.40;6.27;;;27.40;58.70;;;;;;5073554;27;20283;-75
2023/08/01 11:34:48;;;;;;;25.57;5.70;;;27.60;58.60;;;;;;5025490;28;20297;-75
2023/08/01 11:37:21;;;;;;;21.60;4.97;;;27.80;58.60;;;;;;5025873;28;20287;-75
2023/08/01 11:39:49;;;;;;;19.63;5.00;;;28.00;58.60;;;;;;5006718;28;20221;-74
2023/08/01 11:42:17;;;;;;;26.47;5.47;;;28.30;58.20;;;;;;5018963;28;20649;-76
2023/08/01 11:44:44;;;;;;;24.73;5.50;;;28.50;57.90;;;;;;5025636;28;20212;-74
2023/08/01 11:47:15;;;;;;;21.97;5.47;;;28.70;57.50;;;;;;5025356;28;20292;-75
2023/08/01 11:49:46;;;;;;;25.53;5.40;;;28.90;57.10;;;;;;5024138;27;20731;-75
2023/08/01 11:52:25;;;;;;;19.17;4.70;;;29.00;56.60;;;;;;5026054;28;20209;-76
2023/08/01 11:54:54;;;;;;;13.30;4.23;;;29.10;56.90;;;;;;5026021;28;20291;-75
2023/08/01 11:57:21;;;;;;;22.63;5.57;;;29.20;56.40;;;;;;5023784;28;20193;-75
2023/08/01 11:59:49;;;;;;;20.27;4.70;;;29.20;56.00;;;;;;5024483;28;20256;-75
2023/08/01 12:02:23;;;;;;;27.27;5.80;;;29.30;55.80;;;;;;5024560;28;20212;-75
2023/08/01 12:04:50;;;;;;;32.63;6.40;;;29.30;55.40;;;;;;5024706;27;20672;-77
2023/08/01 12:07:17;;;;;;;26.93;5.53;;;29.30;55.60;;;;;;5016315;28;20208;-74
2023/08/01 12:09:55;;;;;;;26.73;5.50;;;29.30;55.60;;;;;;5012174;28;20288;-75
2023/08/01 12:12:22;;;;;;;19.97;4.83;;;29.30;55.60;;;;;;5006389;28;20292;-75
2023/08/01 12:14:49;;;;;;;19.63;5.27;;;29.30;55.70;;;;;;5022410;28;20236;-74
2023/08/01 12:17:16;;;;;;;34.77;6.63;;;29.30;55.60;;;;;;5025636;28;20201;-74
2023/08/01 12:19:43;;;;;;;19.47;4.90;;;29.30;55.70;;;;;;5018485;28;20225;-74
2023/08/01 12:22:10;;;;;;;24.97;5.80;;;29.40;56.00;;;;;;5027244;28;20283;-74
2023/08/01 12:24:37;;;;;;;22.47;5.33;;;29.50;56.00;;;;;;5025023;28;20372;-75
2023/08/01 12:27:07;;;;;;;23.57;5.27;;;29.50;55.80;;;;;;5024913;28;20240;-75
2023/08/01 12:29:34;;;;;;;25.50;5.40;;;29.60;55.70;;;;;;5024454;28;20281;-75
2023/08/01 12:32:03;;;;;;;24.07;5.37;;;29.70;55.50;;;;;;5025588;28;20216;-77
2023/08/01 12:34:30;;;;;;;37.60;6.43;;;29.70;55.20;;;;;;5024648;28;20220;-74
2023/08/01 12:36:57;;;;;;;23.97;5.40;;;29.80;55.00;;;;;;5025016;28;20284;-74
2023/08/01 12:39:25;;;;;;;20.67;5.23;;;29.80;54.90;;;;;;5023127;28;20213;-74